Suderau — V2BE1 — position and weather

sailwx.info

Track history (hours):
 
Tides and Currents Weather Stations Pressure Air Temp Water Temp Dewpoint Dewpoint Depression Visibility Wind Speed Wind Dir Waves Ship Positions

Suderau

Last reported at 2018-Feb-22 22:28 UTC. Time now 2018-Feb-22 22:51 UTC.
Position N 41°11' W 008°41'.

Length 88 m; draft 5.5 m.

Type: Cargo ship. MMSI: 304797000.

Date/timePositionNaut miles runAvg speedWind from/ knotsBaromVisibWave heightAir tempDewpointWater temp
2018-Feb-22 22:28N 41°11' W 008°41'0 0.0
2018-Feb-22 21:58N 41°11' W 008°41'0 0.0
2018-Feb-22 21:28N 41°11' W 008°41'0 0.0
2018-Feb-22 20:58N 41°11' W 008°41'0 0.0
2018-Feb-22 20:28N 41°11' W 008°41'0 0.0
2018-Feb-22 19:58N 41°11' W 008°41'0 0.0
2018-Feb-22 19:28N 41°11' W 008°41'0 0.0
2018-Feb-22 18:58N 41°11' W 008°41'0 0.0
2018-Feb-22 18:28N 41°11' W 008°41'0 0.0
2018-Feb-22 17:58N 41°11' W 008°41'0 0.0
2018-Feb-22 17:28N 41°11' W 008°41'0 0.0
2018-Feb-22 16:58N 41°11' W 008°41'0 0.0
2018-Feb-22 16:28N 41°11' W 008°41'0 0.0
2018-Feb-22 15:58N 41°11' W 008°41'0 0.0
2018-Feb-22 15:28N 41°11' W 008°41'0 0.0
2018-Feb-22 14:58N 41°11' W 008°41'0 0.0
2018-Feb-22 14:28N 41°11' W 008°41'0 0.0
2018-Feb-22 13:40N 41°11' W 008°41'0 0.0
2018-Feb-22 13:10N 41°11' W 008°41'0 0.0
2018-Feb-22 12:58N 41°11' W 008°41'0 0.0
2018-Feb-22 12:28N 41°11' W 008°41'0 0.0
2018-Feb-22 11:58N 41°11' W 008°41'0 0.0
2018-Feb-22 11:28N 41°11' W 008°41'0 0.0
2018-Feb-22 10:58N 41°11' W 008°41'0 0.0
2018-Feb-22 10:28N 41°11' W 008°41'0 0.0
2018-Feb-22 09:58N 41°11' W 008°41'0 0.0
2018-Feb-22 09:28N 41°11' W 008°41'0 0.2
2018-Feb-22 09:00N 41°11' W 008°41'2 4.2
2018-Feb-22 08:30N 41°10' W 008°43'4 8.3
2018-Feb-22 08:00N 41°13' W 008°47'  
2018-Feb-19 21:36N 49°10' W 005°00'5 9.1
2018-Feb-19 21:04N 49°12' W 004°54'10 8.3
2018-Feb-19 19:52N 49°17' W 004°41'3 7.8
2018-Feb-19 19:30N 49°19' W 004°37'6 7.6
2018-Feb-19 18:44N 49°22' W 004°29'47 9.3
2018-Feb-19 13:43N 49°46' W 003°27'410.7
2018-Feb-19 13:23N 49°48' W 003°23'410.4
2018-Feb-19 12:59N 49°50' W 003°17'510.0
2018-Feb-19 12:29N 49°53' W 003°11'7 9.1
2018-Feb-19 11:40N 49°56' W 002°60'1 8.7
2018-Feb-19 11:30N 49°56' W 002°58'4 8.2
2018-Feb-19 10:59N 49°58' W 002°52'9810.0
2018-Feb-19 01:07N 50°27' W 000°25'1 9.6
2018-Feb-19 00:59N 50°28' W 000°23'4 9.2
2018-Feb-19 00:30N 50°29' W 000°17'4 8.6
2018-Feb-19 00:00N 50°30' W 000°10'4 8.0
2018-Feb-18 23:30N 50°31' W 000°04'4 7.5
2018-Feb-18 23:00N 50°32' E 000°01'4 7.3
2018-Feb-18 22:30N 50°33' E 000°07'4 7.5
2018-Feb-18 22:00N 50°34' E 000°13'4 7.8
2018-Feb-18 21:30N 50°36' E 000°18'4 8.5
2018-Feb-18 21:00N 50°37' E 000°25'5 9.5
2018-Feb-18 20:30N 50°38' E 000°32'510.2
2018-Feb-18 20:00N 50°41' E 000°39'510.9
2018-Feb-18 19:30N 50°44' E 000°46'611.3
2018-Feb-18 19:00N 50°47' E 000°53'911.2
2018-Feb-18 18:10N 50°53' E 001°05'210.8
2018-Feb-18 18:00N 50°54' E 001°08'510.6
2018-Feb-18 17:29N 50°57' E 001°14'5 9.9
2018-Feb-18 17:00N 51°00' E 001°20'4 9.2
2018-Feb-18 16:30N 51°03' E 001°26'4 8.5
2018-Feb-18 16:00N 51°06' E 001°31'4 7.2
2018-Feb-18 15:30N 51°09' E 001°35'3 6.6
2018-Feb-18 15:00N 51°11' E 001°39'3 6.3
2018-Feb-18 14:30N 51°13' E 001°42'4 7.1
2018-Feb-18 14:00N 51°17' E 001°43'4 7.4
2018-Feb-18 13:30N 51°20' E 001°43'4 8.2
2018-Feb-18 13:00N 51°24' E 001°44'5 9.1
2018-Feb-18 12:30N 51°29' E 001°44'510.2
2018-Feb-18 12:00N 51°34' E 001°45'611.2
2018-Feb-18 11:30N 51°39' E 001°46'611.6
2018-Feb-18 11:00N 51°45' E 001°44'611.8
2018-Feb-18 10:30N 51°51' E 001°44'612.0
2018-Feb-18 10:00N 51°57' E 001°45'612.1
2018-Feb-18 09:30N 52°03' E 001°46'612.0
2018-Feb-18 09:00N 52°09' E 001°47'2710.8
2018-Feb-18 06:30N 52°36' E 001°53'4 8.6
2018-Feb-18 06:00N 52°40' E 001°54'4 8.0
2018-Feb-18 05:30N 52°44' E 001°55'4 7.1
2018-Feb-18 05:00N 52°47' E 001°51'4 7.8
2018-Feb-18 04:30N 52°49' E 001°46'4 7.4
2018-Feb-18 04:00N 52°51' E 001°41'3 6.8
2018-Feb-18 03:30N 52°54' E 001°37'3 7.0
2018-Feb-18 03:00N 52°56' E 001°32'4 7.0
2018-Feb-18 02:30N 52°58' E 001°27'4 7.3
2018-Feb-18 02:00N 52°60' E 001°22'4 7.7
2018-Feb-18 01:30N 53°02' E 001°17'4 8.1
2018-Feb-18 01:00N 53°04' E 001°11'  
2018-Feb-14 07:36N 53°06' E 001°03'0 3.9
2018-Feb-14 07:29N 53°06' E 001°04'2 4.2
2018-Feb-14 06:58N 53°05' E 001°07'3 6.5
2018-Feb-14 06:30N 53°04' E 001°12'2 4.8
2018-Feb-14 06:00N 53°03' E 001°15'2 4.8
2018-Feb-14 05:30N 53°02' E 001°19'2 4.7
2018-Feb-14 05:00N 53°00' E 001°22'3 5.0
2018-Feb-14 04:30N 52°59' E 001°25'3 5.6
2018-Feb-14 04:00N 52°57' E 001°29'3 6.0
2018-Feb-14 03:30N 52°56' E 001°33'3 6.0
2018-Feb-14 03:00N 52°54' E 001°37'3 6.6
2018-Feb-14 02:30N 52°52' E 001°42'3 7.0
2018-Feb-14 02:00N 52°50' E 001°47'4 8.2
2018-Feb-14 01:30N 52°48' E 001°52'5 8.8
2018-Feb-14 01:00N 52°44' E 001°55'32 5.9
2018-Feb-13 19:36N 52°12' E 001°51'1 5.5
2018-Feb-13 19:30N 52°11' E 001°50'3 5.4
2018-Feb-13 19:00N 52°08' E 001°50'3 5.6
2018-Feb-13 18:30N 52°06' E 001°50'3 5.7
2018-Feb-13 18:00N 52°03' E 001°50'3 5.8
2018-Feb-13 17:30N 51°60' E 001°50'3 5.5
2018-Feb-13 17:00N 51°57' E 001°49'3 6.2
2018-Feb-13 16:30N 51°54' E 001°49'3 6.4
2018-Feb-13 16:00N 51°51' E 001°48'3 6.7
2018-Feb-13 15:30N 51°47' E 001°48'4 7.1
2018-Feb-13 15:00N 51°44' E 001°48'4 7.1
2018-Feb-13 14:30N 51°40' E 001°49'4 7.3
2018-Feb-13 14:00N 51°37' E 001°48'4 7.4
2018-Feb-13 13:30N 51°33' E 001°47'4 7.8
2018-Feb-13 13:00N 51°29' E 001°46'4 7.8
2018-Feb-13 12:30N 51°25' E 001°45'4 8.2
2018-Feb-13 12:00N 51°21' E 001°44'4 8.5
2018-Feb-13 11:30N 51°17' E 001°43'4 7.7
2018-Feb-13 11:00N 51°14' E 001°40'4 7.8
2018-Feb-13 10:30N 51°11' E 001°36'5 9.1
2018-Feb-13 10:00N 51°07' E 001°39'5 9.7
2018-Feb-13 09:29N 51°03' E 001°35'4 8.9
2018-Feb-13 09:00N 50°60' E 001°30'4 7.9
2018-Feb-13 08:30N 50°56' E 001°26'4 8.0
2018-Feb-13 08:00N 50°53' E 001°24'  
Track history (hours):
 
Tides and Currents Weather Stations Pressure Air Temp Water Temp Dewpoint Dewpoint Depression Visibility Wind Speed Wind Dir Waves Ship Positions

Suderau

Last reported at 2018-Feb-22 22:28 UTC. Time now 2018-Feb-22 22:51 UTC.
Position N 41°11' W 008°41'.

Length 88 m; draft 5.5 m.

Type: Cargo ship. MMSI: 304797000.

Date/timePositionNaut miles runAvg speedWind from/ knotsBaromVisibWave heightAir tempDewpointWater temp
2018-Feb-22 22:28N 41°11' W 008°41'0 0.0
2018-Feb-22 21:58N 41°11' W 008°41'0 0.0
2018-Feb-22 21:28N 41°11' W 008°41'0 0.0
2018-Feb-22 20:58N 41°11' W 008°41'0 0.0
2018-Feb-22 20:28N 41°11' W 008°41'0 0.0
2018-Feb-22 19:58N 41°11' W 008°41'0 0.0
2018-Feb-22 19:28N 41°11' W 008°41'0 0.0
2018-Feb-22 18:58N 41°11' W 008°41'0 0.0
2018-Feb-22 18:28N 41°11' W 008°41'0 0.0
2018-Feb-22 17:58N 41°11' W 008°41'0 0.0
2018-Feb-22 17:28N 41°11' W 008°41'0 0.0
2018-Feb-22 16:58N 41°11' W 008°41'0 0.0
2018-Feb-22 16:28N 41°11' W 008°41'0 0.0
2018-Feb-22 15:58N 41°11' W 008°41'0 0.0
2018-Feb-22 15:28N 41°11' W 008°41'0 0.0
2018-Feb-22 14:58N 41°11' W 008°41'0 0.0
2018-Feb-22 14:28N 41°11' W 008°41'0 0.0
2018-Feb-22 13:40N 41°11' W 008°41'0 0.0
2018-Feb-22 13:10N 41°11' W 008°41'0 0.0
2018-Feb-22 12:58N 41°11' W 008°41'0 0.0
2018-Feb-22 12:28N 41°11' W 008°41'0 0.0
2018-Feb-22 11:58N 41°11' W 008°41'0 0.0
2018-Feb-22 11:28N 41°11' W 008°41'0 0.0
2018-Feb-22 10:58N 41°11' W 008°41'0 0.0
2018-Feb-22 10:28N 41°11' W 008°41'0 0.0
2018-Feb-22 09:58N 41°11' W 008°41'0 0.0
2018-Feb-22 09:28N 41°11' W 008°41'0 0.2
2018-Feb-22 09:00N 41°11' W 008°41'2 4.2
2018-Feb-22 08:30N 41°10' W 008°43'4 8.3
2018-Feb-22 08:00N 41°13' W 008°47'  
2018-Feb-19 21:36N 49°10' W 005°00'5 9.1
2018-Feb-19 21:04N 49°12' W 004°54'10 8.3
2018-Feb-19 19:52N 49°17' W 004°41'3 7.8
2018-Feb-19 19:30N 49°19' W 004°37'6 7.6
2018-Feb-19 18:44N 49°22' W 004°29'47 9.3
2018-Feb-19 13:43N 49°46' W 003°27'410.7
2018-Feb-19 13:23N 49°48' W 003°23'410.4
2018-Feb-19 12:59N 49°50' W 003°17'510.0
2018-Feb-19 12:29N 49°53' W 003°11'7 9.1
2018-Feb-19 11:40N 49°56' W 002°60'1 8.7
2018-Feb-19 11:30N 49°56' W 002°58'4 8.2
2018-Feb-19 10:59N 49°58' W 002°52'9810.0
2018-Feb-19 01:07N 50°27' W 000°25'1 9.6
2018-Feb-19 00:59N 50°28' W 000°23'4 9.2
2018-Feb-19 00:30N 50°29' W 000°17'4 8.6
2018-Feb-19 00:00N 50°30' W 000°10'4 8.0
2018-Feb-18 23:30N 50°31' W 000°04'4 7.5
2018-Feb-18 23:00N 50°32' E 000°01'4 7.3
2018-Feb-18 22:30N 50°33' E 000°07'4 7.5
2018-Feb-18 22:00N 50°34' E 000°13'4 7.8
2018-Feb-18 21:30N 50°36' E 000°18'4 8.5
2018-Feb-18 21:00N 50°37' E 000°25'5 9.5
2018-Feb-18 20:30N 50°38' E 000°32'510.2
2018-Feb-18 20:00N 50°41' E 000°39'510.9
2018-Feb-18 19:30N 50°44' E 000°46'611.3
2018-Feb-18 19:00N 50°47' E 000°53'911.2
2018-Feb-18 18:10N 50°53' E 001°05'210.8
2018-Feb-18 18:00N 50°54' E 001°08'510.6
2018-Feb-18 17:29N 50°57' E 001°14'5 9.9
2018-Feb-18 17:00N 51°00' E 001°20'4 9.2
2018-Feb-18 16:30N 51°03' E 001°26'4 8.5
2018-Feb-18 16:00N 51°06' E 001°31'4 7.2
2018-Feb-18 15:30N 51°09' E 001°35'3 6.6
2018-Feb-18 15:00N 51°11' E 001°39'3 6.3
2018-Feb-18 14:30N 51°13' E 001°42'4 7.1
2018-Feb-18 14:00N 51°17' E 001°43'4 7.4
2018-Feb-18 13:30N 51°20' E 001°43'4 8.2
2018-Feb-18 13:00N 51°24' E 001°44'5 9.1
2018-Feb-18 12:30N 51°29' E 001°44'510.2
2018-Feb-18 12:00N 51°34' E 001°45'611.2
2018-Feb-18 11:30N 51°39' E 001°46'611.6
2018-Feb-18 11:00N 51°45' E 001°44'611.8
2018-Feb-18 10:30N 51°51' E 001°44'612.0
2018-Feb-18 10:00N 51°57' E 001°45'612.1
2018-Feb-18 09:30N 52°03' E 001°46'612.0
2018-Feb-18 09:00N 52°09' E 001°47'2710.8
2018-Feb-18 06:30N 52°36' E 001°53'4 8.6
2018-Feb-18 06:00N 52°40' E 001°54'4 8.0
2018-Feb-18 05:30N 52°44' E 001°55'4 7.1
2018-Feb-18 05:00N 52°47' E 001°51'4 7.8
2018-Feb-18 04:30N 52°49' E 001°46'4 7.4
2018-Feb-18 04:00N 52°51' E 001°41'3 6.8
2018-Feb-18 03:30N 52°54' E 001°37'3 7.0
2018-Feb-18 03:00N 52°56' E 001°32'4 7.0
2018-Feb-18 02:30N 52°58' E 001°27'4 7.3
2018-Feb-18 02:00N 52°60' E 001°22'4 7.7
2018-Feb-18 01:30N 53°02' E 001°17'4 8.1
2018-Feb-18 01:00N 53°04' E 001°11'  
2018-Feb-14 07:36N 53°06' E 001°03'0 3.9
2018-Feb-14 07:29N 53°06' E 001°04'2 4.2
2018-Feb-14 06:58N 53°05' E 001°07'3 6.5
2018-Feb-14 06:30N 53°04' E 001°12'2 4.8
2018-Feb-14 06:00N 53°03' E 001°15'2 4.8
2018-Feb-14 05:30N 53°02' E 001°19'2 4.7
2018-Feb-14 05:00N 53°00' E 001°22'3 5.0
2018-Feb-14 04:30N 52°59' E 001°25'3 5.6
2018-Feb-14 04:00N 52°57' E 001°29'3 6.0
2018-Feb-14 03:30N 52°56' E 001°33'3 6.0
2018-Feb-14 03:00N 52°54' E 001°37'3 6.6
2018-Feb-14 02:30N 52°52' E 001°42'3 7.0
2018-Feb-14 02:00N 52°50' E 001°47'4 8.2
2018-Feb-14 01:30N 52°48' E 001°52'5 8.8
2018-Feb-14 01:00N 52°44' E 001°55'32 5.9
2018-Feb-13 19:36N 52°12' E 001°51'1 5.5
2018-Feb-13 19:30N 52°11' E 001°50'3 5.4
2018-Feb-13 19:00N 52°08' E 001°50'3 5.6
2018-Feb-13 18:30N 52°06' E 001°50'3 5.7
2018-Feb-13 18:00N 52°03' E 001°50'3 5.8
2018-Feb-13 17:30N 51°60' E 001°50'3 5.5
2018-Feb-13 17:00N 51°57' E 001°49'3 6.2
2018-Feb-13 16:30N 51°54' E 001°49'3 6.4
2018-Feb-13 16:00N 51°51' E 001°48'3 6.7
2018-Feb-13 15:30N 51°47' E 001°48'4 7.1
2018-Feb-13 15:00N 51°44' E 001°48'4 7.1
2018-Feb-13 14:30N 51°40' E 001°49'4 7.3
2018-Feb-13 14:00N 51°37' E 001°48'4 7.4
2018-Feb-13 13:30N 51°33' E 001°47'4 7.8
2018-Feb-13 13:00N 51°29' E 001°46'4 7.8
2018-Feb-13 12:30N 51°25' E 001°45'4 8.2
2018-Feb-13 12:00N 51°21' E 001°44'4 8.5
2018-Feb-13 11:30N 51°17' E 001°43'4 7.7
2018-Feb-13 11:00N 51°14' E 001°40'4 7.8
2018-Feb-13 10:30N 51°11' E 001°36'5 9.1
2018-Feb-13 10:00N 51°07' E 001°39'5 9.7
2018-Feb-13 09:29N 51°03' E 001°35'4 8.9
2018-Feb-13 09:00N 50°60' E 001°30'4 7.9
2018-Feb-13 08:30N 50°56' E 001°26'4 8.0
2018-Feb-13 08:00N 50°53' E 001°24'  

Dump ship's entire track history